Time;durP1;ratioP1;P1;durP2;ratioP2;P2;SDS_P1;SDS_P2;PMS_P1;PMS_P2;Temp;Humidity;BMP_temperature;BMP_pressure;BME280_temperature;BME280_humidity;BME280_pressure;Samples;Min_cycle;Max_cycle;Signal;HPM_P1;HPM_P2
2023/08/30 00:45:49;;;;;;;9.38;7.28;;;;;;;29.72;89.12;99877.91;5132621;27;20841;-68
2023/08/30 00:48:35;;;;;;;18.73;7.20;;;;;;;29.37;90.72;99878.16;5130339;28;20063;-69
2023/08/30 00:51:21;;;;;;;11.63;7.40;;;;;;;29.12;92.27;99876.44;5131380;28;20019;-68
2023/08/30 00:54:07;;;;;;;15.90;8.07;;;;;;;28.88;94.57;99873.63;5130389;28;20356;-69
2023/08/30 00:56:54;;;;;;;11.80;7.53;;;;;;;28.95;94.34;99871.13;5130752;28;20031;-68
2023/08/30 00:59:40;;;;;;;9.88;7.50;;;;;;;28.83;95.25;99862.50;5131219;28;20023;-69
2023/08/30 01:02:26;;;;;;;16.45;7.93;;;;;;;28.13;98.68;99870.00;5130783;28;20027;-69
2023/08/30 01:05:12;;;;;;;14.52;7.93;;;;;;;28.31;98.77;99868.94;5130937;28;20027;-70
2023/08/30 01:07:57;;;;;;;13.40;8.30;;;;;;;28.75;96.69;99880.47;5131488;28;20055;-69
2023/08/30 01:11:08;;;;;;;18.60;8.00;;;;;;;28.59;98.20;99889.34;5131108;28;20023;-71
2023/08/30 01:14:00;;;;;;;9.98;7.38;;;;;;;28.25;100.00;99876.81;5131506;28;20015;-69
2023/08/30 01:16:47;;;;;;;16.75;8.52;;;;;;;28.44;100.00;99876.63;5130370;28;20031;-70
2023/08/30 01:19:56;;;;;;;20.27;8.30;;;;;;;28.14;100.00;99886.00;5130486;28;20023;-69
2023/08/30 01:22:59;;;;;;;12.02;7.57;;;;;;;28.00;100.00;99889.25;5130066;28;20034;-69
2023/08/30 01:26:09;;;;;;;15.63;8.25;;;;;;;28.00;100.00;99893.81;5130302;28;20049;-69
2023/08/30 01:29:00;;;;;;;13.05;7.30;;;;;;;28.10;100.00;99897.25;5129738;28;20496;-69
2023/08/30 01:31:48;;;;;;;15.95;7.90;;;;;;;27.88;100.00;99901.28;5130185;28;20045;-69
2023/08/30 01:34:35;;;;;;;12.95;7.40;;;;;;;27.98;100.00;99893.97;5129867;28;20364;-68
2023/08/30 01:37:21;;;;;;;12.93;7.05;;;;;;;27.86;100.00;99886.28;5130648;28;20035;-69
2023/08/30 01:40:09;;;;;;;11.40;7.35;;;;;;;27.41;100.00;99889.06;5130210;28;20110;-69
2023/08/30 01:42:57;;;;;;;14.00;6.80;;;;;;;27.51;100.00;99887.13;5128856;28;20119;-69
2023/08/30 01:45:43;;;;;;;14.68;7.43;;;;;;;27.63;100.00;99890.44;5121808;28;20096;-69
2023/08/30 01:48:31;;;;;;;15.52;7.28;;;;;;;27.62;100.00;99897.69;5116112;28;20024;-69
2023/08/30 01:51:17;;;;;;;9.98;7.57;;;;;;;27.74;100.00;99884.81;5116717;28;20035;-68
2023/08/30 01:54:04;;;;;;;11.35;6.93;;;;;;;27.76;100.00;99886.34;5115840;28;20019;-69
2023/08/30 01:56:50;;;;;;;12.60;7.40;;;;;;;27.56;100.00;99876.75;5116582;28;20035;-68
2023/08/30 01:59:35;;;;;;;11.95;7.25;;;;;;;26.54;100.00;99877.06;5115713;28;20342;-68
2023/08/30 02:02:21;;;;;;;13.00;7.05;;;;;;;26.72;100.00;99869.94;5116013;28;20039;-69
2023/08/30 02:05:08;;;;;;;20.92;7.55;;;;;;;26.75;100.00;99876.84;5115586;28;20054;-69
2023/08/30 02:08:04;;;;;;;11.73;7.60;;;;;;;26.68;100.00;99870.41;5116472;28;20059;-68
2023/08/30 02:10:56;;;;;;;14.93;7.32;;;;;;;26.71;100.00;99872.75;5115334;28;20100;-69
2023/08/30 02:13:44;;;;;;;16.42;8.13;;;;;;;27.13;100.00;99868.56;5115504;28;20028;-69
2023/08/30 02:16:31;;;;;;;14.40;7.03;;;;;;;26.95;100.00;99873.06;5115792;28;20349;-69
2023/08/30 02:19:21;;;;;;;10.57;7.22;;;;;;;26.92;100.00;99876.91;5116317;28;20042;-68
2023/08/30 02:22:06;;;;;;;12.27;7.45;;;;;;;26.86;100.00;99872.13;5115740;28;20115;-69
2023/08/30 02:24:52;;;;;;;12.85;6.95;;;;;;;26.53;100.00;99869.16;5115607;28;20459;-69
2023/08/30 02:27:38;;;;;;;13.93;7.38;;;;;;;26.69;100.00;99861.31;5116794;28;20344;-69
2023/08/30 02:30:23;;;;;;;13.05;7.45;;;;;;;26.94;100.00;99866.00;5115223;28;20120;-69
2023/08/30 02:33:09;;;;;;;10.38;7.00;;;;;;;26.75;100.00;99864.25;5116194;28;20106;-69
2023/08/30 02:35:55;;;;;;;12.15;7.53;;;;;;;27.20;100.00;99865.13;5116069;28;20496;-68
2023/08/30 02:38:41;;;;;;;10.95;7.07;;;;;;;27.00;100.00;99863.53;5115593;28;20035;-68
2023/08/30 02:41:26;;;;;;;14.95;7.55;;;;;;;26.62;100.00;99868.28;5115561;28;20027;-68
2023/08/30 02:44:12;;;;;;;14.20;7.80;;;;;;;26.78;100.00;99865.81;5115862;28;20100;-68
2023/08/30 02:46:58;;;;;;;14.77;7.28;;;;;;;26.84;100.00;99874.09;5115844;28;20038;-68
2023/08/30 02:49:44;;;;;;;16.65;7.68;;;;;;;26.91;100.00;99871.66;5115246;28;20023;-69
2023/08/30 02:52:29;;;;;;;13.95;7.63;;;;;;;26.91;100.00;99882.41;5116089;28;20087;-68
2023/08/30 02:55:15;;;;;;;11.27;7.45;;;;;;;26.96;100.00;99885.50;5115204;28;20110;-68
2023/08/30 02:58:01;;;;;;;10.00;6.88;;;;;;;26.80;100.00;99883.47;5115339;28;20031;-68
2023/08/30 03:00:47;;;;;;;11.75;7.35;;;;;;;26.36;100.00;99894.09;5116107;28;20435;-69
2023/08/30 03:03:33;;;;;;;13.13;7.30;;;;;;;25.99;100.00;99902.09;5115941;28;20124;-67
2023/08/30 03:06:18;;;;;;;16.17;7.50;;;;;;;26.13;100.00;99903.50;5114899;28;20023;-68
2023/08/30 03:09:06;;;;;;;14.13;7.70;;;;;;;26.02;100.00;99900.97;5115505;28;20031;-67
2023/08/30 03:11:51;;;;;;;10.82;6.97;;;;;;;26.09;100.00;99899.41;5114668;28;20054;-69
2023/08/30 03:14:37;;;;;;;18.17;7.90;;;;;;;25.80;100.00;99909.31;5115113;28;20080;-68
2023/08/30 03:17:24;;;;;;;11.25;6.80;;;;;;;25.78;100.00;99900.53;5115585;28;20031;-68
2023/08/30 03:20:10;;;;;;;12.23;7.72;;;;;;;25.90;100.00;99899.38;5114611;28;20033;-68
2023/08/30 03:22:57;;;;;;;11.73;7.63;;;;;;;26.25;100.00;99902.34;5114704;28;20039;-68
2023/08/30 03:25:43;;;;;;;12.82;7.38;;;;;;;25.76;100.00;99907.88;5114707;28;20039;-69
2023/08/30 03:28:29;;;;;;;17.38;7.68;;;;;;;25.24;100.00;99903.72;5115037;28;20088;-68
2023/08/30 03:31:15;;;;;;;12.32;8.18;;;;;;;25.59;100.00;99909.44;5114917;28;20160;-68
2023/08/30 03:34:02;;;;;;;14.02;7.82;;;;;;;25.60;100.00;99911.13;5114320;28;20024;-68
2023/08/30 03:36:53;;;;;;;15.73;8.40;;;;;;;25.30;100.00;99910.41;5115280;28;20123;-69
2023/08/30 03:39:39;;;;;;;14.80;7.82;;;;;;;25.30;100.00;99915.75;5115375;28;20023;-68
2023/08/30 03:42:25;;;;;;;14.93;7.55;;;;;;;25.42;100.00;99911.97;5114807;28;20023;-68
2023/08/30 03:45:11;;;;;;;15.57;7.82;;;;;;;25.00;100.00;99908.59;5114405;28;20043;-67
2023/08/30 03:47:56;;;;;;;10.13;7.63;;;;;;;25.24;100.00;99914.44;5114176;28;20057;-67
2023/08/30 03:50:42;;;;;;;14.48;7.68;;;;;;;25.37;100.00;99906.19;5113699;28;20038;-69
2023/08/30 03:53:29;;;;;;;13.30;8.10;;;;;;;25.23;100.00;99920.78;5114446;28;20015;-68
2023/08/30 03:56:15;;;;;;;14.73;7.93;;;;;;;25.00;100.00;99908.59;5114032;28;20035;-68
2023/08/30 03:59:02;;;;;;;13.63;7.68;;;;;;;25.16;100.00;99916.13;5114390;28;20059;-68
2023/08/30 04:01:47;;;;;;;10.82;8.05;;;;;;;25.32;100.00;99911.94;5113964;28;20023;-68
2023/08/30 04:04:33;;;;;;;13.52;7.63;;;;;;;25.23;100.00;99911.94;5114605;28;20023;-68
2023/08/30 04:07:19;;;;;;;14.55;7.68;;;;;;;25.25;100.00;99916.16;5114525;28;20023;-68
2023/08/30 04:10:07;;;;;;;10.50;7.97;;;;;;;25.24;100.00;99921.66;5113674;28;20030;-68
2023/08/30 04:12:52;;;;;;;16.77;7.65;;;;;;;24.97;100.00;99910.72;5114837;28;20114;-68
2023/08/30 04:15:39;;;;;;;11.80;7.65;;;;;;;25.00;100.00;99916.66;5114025;28;20080;-68
2023/08/30 04:18:24;;;;;;;11.98;7.80;;;;;;;24.67;100.00;99922.31;5113963;28;20032;-68
2023/08/30 04:21:10;;;;;;;13.80;7.60;;;;;;;25.22;100.00;99924.47;5113579;28;20063;-69
2023/08/30 04:23:56;;;;;;;15.40;8.00;;;;;;;25.05;100.00;99929.66;5113999;28;20060;-69
2023/08/30 04:26:42;;;;;;;15.00;8.18;;;;;;;25.04;100.00;99927.97;5114449;28;20030;-68
2023/08/30 04:29:27;;;;;;;16.63;7.82;;;;;;;25.29;100.00;99938.19;5114067;28;20448;-68
2023/08/30 04:32:13;;;;;;;16.38;8.80;;;;;;;25.02;100.00;99941.50;5114682;28;20036;-69
2023/08/30 04:34:59;;;;;;;12.20;8.00;;;;;;;25.40;100.00;99941.59;5113584;28;20088;-68
2023/08/30 04:37:44;;;;;;;12.45;8.57;;;;;;;25.43;100.00;99937.81;5113963;28;20089;-69
2023/08/30 04:40:32;;;;;;;15.93;8.10;;;;;;;25.49;100.00;99939.94;5113210;28;20023;-68
2023/08/30 04:43:17;;;;;;;18.48;8.82;;;;;;;25.68;100.00;99943.47;5113218;28;20421;-68
2023/08/30 04:46:03;;;;;;;14.65;8.35;;;;;;;25.45;100.00;99944.75;5113612;28;20054;-69
2023/08/30 04:48:49;;;;;;;18.02;8.93;;;;;;;25.87;100.00;99953.34;5113592;28;20134;-69
2023/08/30 04:51:34;;;;;;;12.95;8.80;;;;;;;25.81;100.00;99959.31;5113231;28;20031;-68
2023/08/30 04:54:20;;;;;;;11.20;7.68;;;;;;;25.92;100.00;99965.34;5113444;28;20041;-68
2023/08/30 04:57:06;;;;;;;11.80;8.07;;;;;;;25.96;100.00;99963.28;5113439;28;20030;-68
2023/08/30 04:59:51;;;;;;;12.65;8.02;;;;;;;25.47;100.00;99968.75;5113101;28;20061;-69
2023/08/30 05:02:37;;;;;;;14.82;8.00;;;;;;;25.16;100.00;99977.81;5113342;28;20104;-69
2023/08/30 05:05:23;;;;;;;16.13;7.88;;;;;;;25.77;100.00;99984.72;5112865;28;20016;-68
2023/08/30 05:08:09;;;;;;;21.05;8.57;;;;;;;26.15;100.00;100007.09;5114068;28;20029;-69
2023/08/30 05:10:55;;;;;;;13.77;7.60;;;;;;;26.01;100.00;100012.91;5113109;28;20102;-68
2023/08/30 05:13:40;;;;;;;10.18;7.18;;;;;;;25.73;100.00;100013.69;5113726;28;20062;-68
2023/08/30 05:16:26;;;;;;;16.20;7.57;;;;;;;25.80;100.00;100012.13;5112937;28;20120;-68
2023/08/30 05:19:12;;;;;;;12.45;7.22;;;;;;;25.65;100.00;100007.31;5113374;28;20020;-68
2023/08/30 05:21:58;;;;;;;11.50;8.15;;;;;;;26.12;100.00;100004.66;5116973;28;20334;-68
2023/08/30 05:24:43;;;;;;;15.32;7.60;;;;;;;26.52;100.00;100016.06;5116973;28;20040;-69
2023/08/30 05:27:29;;;;;;;13.95;8.07;;;;;;;26.27;100.00;100016.69;5116624;28;20028;-68
2023/08/30 05:30:16;;;;;;;11.00;7.50;;;;;;;26.31;100.00;100022.59;5117738;28;20180;-69
2023/08/30 05:33:02;;;;;;;13.52;7.60;;;;;;;26.39;100.00;100028.97;5117473;28;20459;-69
2023/08/30 05:35:48;;;;;;;13.68;7.30;;;;;;;26.45;100.00;100028.38;5116817;28;20016;-69
2023/08/30 05:38:33;;;;;;;16.52;7.82;;;;;;;25.73;100.00;100018.19;5117030;28;20032;-67
2023/08/30 05:41:19;;;;;;;13.05;7.68;;;;;;;26.53;100.00;100030.38;5118036;28;20027;-69
2023/08/30 05:44:05;;;;;;;10.98;7.45;;;;;;;26.71;100.00;100034.88;5117046;28;20456;-69
2023/08/30 05:46:51;;;;;;;12.55;7.90;;;;;;;26.36;100.00;100037.31;5117140;28;20050;-69
2023/08/30 05:49:37;;;;;;;14.80;8.13;;;;;;;26.15;100.00;100035.75;5116484;28;20036;-68
2023/08/30 05:52:24;;;;;;;10.95;7.60;;;;;;;26.08;100.00;100042.72;5116274;28;20452;-69
2023/08/30 05:55:10;;;;;;;17.08;7.85;;;;;;;26.10;100.00;100040.72;5116283;28;20023;-68
2023/08/30 05:57:55;;;;;;;10.85;7.20;;;;;;;26.16;100.00;100043.69;5115947;28;20085;-68
2023/08/30 06:00:41;;;;;;;11.65;6.88;;;;;;;26.41;100.00;100047.63;5116671;28;20070;-68
2023/08/30 06:03:27;;;;;;;14.40;7.40;;;;;;;26.68;100.00;100050.47;5116347;28;20038;-69
2023/08/30 06:06:13;;;;;;;10.95;6.97;;;;;;;26.45;100.00;100049.03;5116292;28;20165;-68
2023/08/30 06:08:59;;;;;;;11.52;6.78;;;;;;;26.50;100.00;100052.16;5116948;28;20027;-68
2023/08/30 06:11:45;;;;;;;13.95;6.88;;;;;;;26.54;100.00;100053.56;5116322;28;20023;-68
2023/08/30 06:14:31;;;;;;;12.18;7.20;;;;;;;26.55;100.00;100061.47;5115799;28;20035;-67
2023/08/30 06:17:16;;;;;;;12.50;6.38;;;;;;;26.40;100.00;100054.00;5116197;28;20123;-68
2023/08/30 06:20:03;;;;;;;11.23;7.10;;;;;;;25.97;100.00;100054.44;5115651;28;20034;-69
2023/08/30 06:22:48;;;;;;;10.98;6.72;;;;;;;26.36;100.00;100056.13;5115134;28;20023;-68
2023/08/30 06:25:34;;;;;;;12.43;6.28;;;;;;;26.69;100.00;100060.22;5115424;28;20485;-68
2023/08/30 06:28:20;;;;;;;12.55;6.90;;;;;;;26.64;100.00;100060.63;5114705;28;20103;-69
2023/08/30 06:31:06;;;;;;;13.32;6.63;;;;;;;26.36;100.00;100057.97;5115847;28;20118;-68
2023/08/30 06:33:51;;;;;;;13.68;6.68;;;;;;;26.70;100.00;100061.91;5114980;28;20523;-69
2023/08/30 06:36:38;;;;;;;12.75;6.32;;;;;;;27.01;100.00;100061.53;5116982;28;20054;-69
2023/08/30 06:39:23;;;;;;;8.75;6.40;;;;;;;27.24;100.00;100057.53;5114924;28;20452;-70
2023/08/30 06:42:09;;;;;;;9.57;6.05;;;;;;;27.30;100.00;100056.94;5114528;28;20038;-68
2023/08/30 06:44:55;;;;;;;10.35;6.82;;;;;;;27.28;100.00;100063.44;5113993;28;20039;-69
2023/08/30 06:47:40;;;;;;;11.18;5.88;;;;;;;27.03;100.00;100072.16;5115168;28;20059;-68
2023/08/30 06:50:26;;;;;;;10.18;6.05;;;;;;;27.31;100.00;100055.06;5114494;28;20444;-69
2023/08/30 06:53:12;;;;;;;12.40;6.15;;;;;;;26.85;100.00;100063.16;5115951;28;20180;-68
2023/08/30 06:56:01;;;;;;;10.07;6.45;;;;;;;26.97;100.00;100075.44;5115156;28;20028;-69
2023/08/30 06:58:47;;;;;;;11.55;7.00;;;;;;;27.46;100.00;100067.06;5115197;28;20352;-69
2023/08/30 07:01:33;;;;;;;10.00;6.10;;;;;;;27.70;100.00;100056.56;5116349;28;20031;-69
2023/08/30 07:04:19;;;;;;;13.32;6.70;;;;;;;27.64;100.00;100064.41;5115399;28;20024;-68
2023/08/30 07:07:04;;;;;;;9.93;6.43;;;;;;;27.39;100.00;100068.63;5115982;28;20027;-69
2023/08/30 07:09:50;;;;;;;10.77;6.78;;;;;;;27.48;100.00;100073.13;5115435;28;20039;-69
2023/08/30 07:12:36;;;;;;;11.15;6.80;;;;;;;27.91;100.00;100064.38;5114673;28;20051;-69
2023/08/30 07:15:22;;;;;;;9.32;6.45;;;;;;;27.84;100.00;100066.03;5115883;28;20047;-69
2023/08/30 07:18:09;;;;;;;12.00;7.30;;;;;;;27.49;100.00;100066.75;5115730;28;20032;-69
2023/08/30 07:20:54;;;;;;;13.55;6.90;;;;;;;27.67;100.00;100058.69;5115790;28;20388;-69
2023/08/30 07:23:40;;;;;;;12.80;6.75;;;;;;;28.19;100.00;100061.50;5115135;28;20512;-70
2023/08/30 07:26:26;;;;;;;14.50;6.90;;;;;;;28.02;100.00;100061.47;5099258;28;20175;-69
2023/08/30 07:29:12;;;;;;;13.60;7.25;;;;;;;28.24;100.00;100061.88;5114920;28;20028;-69
2023/08/30 07:31:58;;;;;;;12.77;6.97;;;;;;;28.61;100.00;100059.84;5115159;28;20416;-69
2023/08/30 07:34:43;;;;;;;12.30;6.80;;;;;;;28.25;100.00;100055.47;5114694;28;20015;-67
2023/08/30 07:37:30;;;;;;;10.32;6.30;;;;;;;27.80;100.00;100049.28;5114041;28;20027;-70
2023/08/30 07:40:15;;;;;;;13.75;6.90;;;;;;;28.42;100.00;100046.59;5115469;28;20059;-70
2023/08/30 07:43:01;;;;;;;10.05;6.82;;;;;;;28.72;100.00;100056.91;5114660;28;20461;-69
2023/08/30 07:45:47;;;;;;;13.43;7.45;;;;;;;28.82;100.00;100049.59;5113041;28;20110;-69
2023/08/30 07:48:33;;;;;;;9.57;6.88;;;;;;;28.89;100.00;100047.09;5114179;28;20027;-69
2023/08/30 07:51:18;;;;;;;11.35;6.68;;;;;;;28.44;100.00;100041.88;5114309;28;20019;-69
2023/08/30 07:54:04;;;;;;;11.98;7.00;;;;;;;28.86;100.00;100042.88;5114471;28;20031;-70
2023/08/30 07:56:50;;;;;;;10.35;7.45;;;;;;;28.69;100.00;100049.13;5115056;28;20092;-69
2023/08/30 07:59:36;;;;;;;12.48;7.40;;;;;;;29.78;100.00;100054.66;5114666;28;20020;-69
2023/08/30 08:02:22;;;;;;;12.35;6.60;;;;;;;29.67;100.00;100044.16;5099862;28;20062;-69
2023/08/30 08:05:08;;;;;;;10.13;6.57;;;;;;;29.99;99.11;100045.09;5098662;28;20027;-69
2023/08/30 08:07:59;;;;;;;15.15;7.35;;;;;;;30.00;99.27;100041.34;5113721;28;20028;-69
2023/08/30 08:10:45;;;;;;;13.27;6.80;;;;;;;30.50;96.88;100044.78;5114492;28;20023;-69
2023/08/30 08:13:31;;;;;;;14.05;7.10;;;;;;;30.46;97.76;100051.53;5113069;28;20161;-69
2023/08/30 08:16:17;;;;;;;18.27;8.30;;;;;;;30.60;96.00;100045.47;5114656;28;20027;-69
2023/08/30 08:19:02;;;;;;;18.77;7.97;;;;;;;30.78;94.76;100054.25;5114272;28;20027;-69
2023/08/30 08:21:49;;;;;;;9.82;6.90;;;;;;;30.56;95.88;100043.25;5114698;28;20414;-69
2023/08/30 08:24:35;;;;;;;12.20;7.03;;;;;;;30.05;98.90;100039.00;5098466;28;20054;-69
2023/08/30 08:27:20;;;;;;;14.20;7.20;;;;;;;31.07;95.25;100040.19;5099293;28;20356;-68
2023/08/30 08:30:07;;;;;;;12.38;6.80;;;;;;;31.18;93.17;100045.22;5098967;28;20411;-68
2023/08/30 08:32:52;;;;;;;12.80;6.50;;;;;;;31.81;89.01;100043.28;5113053;28;20028;-68
2023/08/30 08:35:39;;;;;;;10.57;7.03;;;;;;;32.03;86.74;100050.63;5112794;28;20030;-69
2023/08/30 08:38:25;;;;;;;13.63;7.05;;;;;;;32.23;85.78;100054.56;5113269;28;20087;-68
2023/08/30 08:41:14;;;;;;;8.40;5.88;;;;;;;32.00;86.52;100048.25;5115177;28;20481;-68
2023/08/30 08:44:00;;;;;;;9.93;6.43;;;;;;;31.93;87.33;100038.34;5113453;28;20104;-68
2023/08/30 08:46:48;;;;;;;11.20;6.55;;;;;;;32.34;85.03;100040.56;5112681;28;20043;-68
2023/08/30 08:49:33;;;;;;;12.30;6.60;;;;;;;31.69;88.99;100039.25;5113502;28;20456;-69
2023/08/30 08:52:19;;;;;;;10.32;7.05;;;;;;;32.02;85.94;100046.19;5099072;28;20357;-69
2023/08/30 08:55:05;;;;;;;11.25;6.28;;;;;;;32.44;81.69;100046.63;5113274;28;20031;-70
2023/08/30 08:57:53;;;;;;;9.23;6.10;;;;;;;32.77;78.91;100050.72;5118519;28;20024;-70
2023/08/30 09:00:39;;;;;;;10.13;7.00;;;;;;;32.24;80.81;100052.66;5102791;28;20034;-69
2023/08/30 09:03:24;;;;;;;9.45;6.35;;;;;;;32.51;82.21;100046.72;5103203;28;20050;-69
2023/08/30 09:06:10;;;;;;;11.48;7.28;;;;;;;32.66;81.20;100039.47;5118155;28;20065;-70
2023/08/30 09:08:56;;;;;;;8.77;6.60;;;;;;;32.76;79.96;100034.59;5117373;28;20027;-69
2023/08/30 09:11:42;;;;;;;10.77;6.63;;;;;;;32.73;80.97;100029.53;5117718;28;20028;-70
2023/08/30 09:14:27;;;;;;;8.18;6.75;;;;;;;32.66;80.49;100028.63;5117624;28;20016;-69
2023/08/30 09:17:13;;;;;;;10.18;6.22;;;;;;;32.19;80.93;100030.69;5117189;28;20110;-69
2023/08/30 09:20:06;;;;;;;11.23;6.55;;;;;;;31.39;85.43;100015.72;5117893;28;20106;-69
2023/08/30 09:22:52;;;;;;;18.63;6.97;;;;;;;31.54;85.87;100016.66;5116543;28;20368;-69
2023/08/30 09:25:37;;;;;;;8.10;6.13;;;;;;;32.55;80.78;100010.91;5117826;28;20016;-69
2023/08/30 09:28:23;;;;;;;10.68;6.68;;;;;;;32.73;80.09;100007.84;5118297;28;20024;-69
2023/08/30 09:31:18;;;;;;;14.18;6.43;;;;;;;32.89;78.50;100004.97;5117049;28;20103;-69
2023/08/30 09:34:04;;;;;;;9.95;6.53;;;;;;;32.73;80.76;100010.53;5117203;28;20038;-69
2023/08/30 09:36:51;;;;;;;11.65;6.60;;;;;;;32.83;79.54;100003.03;5117246;28;20424;-68
2023/08/30 09:39:37;;;;;;;9.68;6.90;;;;;;;33.03;79.02;100004.97;5117251;28;20097;-69
2023/08/30 09:42:22;;;;;;;8.50;6.35;;;;;;;32.76;80.82;100002.03;5116884;28;20088;-69
2023/08/30 09:45:23;;;;;;;10.73;6.60;;;;;;;31.59;85.35;99994.47;5117254;28;20177;-69
2023/08/30 09:48:09;;;;;;;9.00;6.60;;;;;;;32.52;83.08;99997.72;5116524;28;20092;-69
2023/08/30 09:50:58;;;;;;;9.30;6.68;;;;;;;32.48;82.80;99995.53;5101788;28;20023;-69
2023/08/30 09:53:49;;;;;;;10.77;7.00;;;;;;;30.86;92.35;99991.19;5117645;28;20047;-69
2023/08/30 09:56:35;;;;;;;13.43;7.35;;;;;;;31.29;89.64;99990.72;5117099;28;20039;-70
2023/08/30 09:59:21;;;;;;;13.18;6.95;;;;;;;32.00;86.94;99985.06;5116316;28;20076;-70
2023/08/30 10:02:08;;;;;;;15.38;6.85;;;;;;;32.34;84.63;99985.50;5116328;28;20024;-69
2023/08/30 10:04:55;;;;;;;11.63;6.57;;;;;;;32.25;82.11;99983.84;5101462;28;20020;-69
2023/08/30 10:07:43;;;;;;;21.05;7.13;;;;;;;32.48;82.33;99982.84;5101326;28;20039;-69
2023/08/30 10:10:31;;;;;;;13.27;7.03;;;;;;;32.25;82.12;99981.13;5117073;28;20023;-70
2023/08/30 10:13:18;;;;;;;11.55;6.93;;;;;;;32.15;81.74;99977.84;5117488;28;20023;-69
2023/08/30 10:16:04;;;;;;;14.32;6.75;;;;;;;33.37;77.00;99980.00;5117096;28;20033;-69
2023/08/30 10:18:54;;;;;;;8.00;6.53;;;;;;;33.35;74.95;99977.47;5116697;28;20114;-70
2023/08/30 10:21:41;;;;;;;11.23;6.80;;;;;;;32.78;76.63;99968.25;5116743;28;20113;-69
2023/08/30 10:24:29;;;;;;;13.68;6.35;;;;;;;33.14;76.49;99969.22;5117191;28;20385;-69
2023/08/30 10:27:17;;;;;;;9.65;6.03;;;;;;;32.43;74.91;99965.41;5117674;28;20440;-69
2023/08/30 10:30:05;;;;;;;13.45;6.45;;;;;;;32.98;72.32;99963.16;5100787;28;20088;-69
2023/08/30 10:32:51;;;;;;;13.18;5.90;;;;;;;32.67;69.55;99966.03;5100754;28;20028;-69
2023/08/30 10:35:51;;;;;;;9.38;5.80;;;;;;;33.15;65.01;99961.94;5114412;28;20039;-69
2023/08/30 10:38:39;;;;;;;17.30;6.75;;;;;;;32.91;73.05;99967.66;5115350;28;20092;-69
2023/08/30 10:41:26;;;;;;;11.32;6.68;;;;;;;33.37;72.91;99963.69;5114948;28;20027;-70
2023/08/30 10:44:14;;;;;;;18.27;7.22;;;;;;;33.64;72.54;99961.13;5114559;28;20109;-69
2023/08/30 10:47:04;;;;;;;9.50;6.68;;;;;;;33.53;72.59;99949.88;5116965;28;20031;-70
2023/08/30 10:49:49;;;;;;;12.65;6.72;;;;;;;33.78;70.68;99953.91;5100546;28;20038;-69
2023/08/30 10:52:35;;;;;;;11.82;6.32;;;;;;;33.80;68.14;99954.59;5114259;28;20047;-70
2023/08/30 10:55:23;;;;;;;11.35;6.32;;;;;;;33.83;65.25;99949.63;5114999;28;20015;-70
2023/08/30 10:58:13;;;;;;;10.75;6.28;;;;;;;34.08;66.61;99953.63;5100987;28;20070;-70
2023/08/30 11:00:59;;;;;;;14.40;6.43;;;;;;;34.13;65.13;99950.31;5114711;28;20092;-70
2023/08/30 11:03:45;;;;;;;11.60;6.20;;;;;;;33.59;67.67;99949.97;5115098;28;20357;-70
2023/08/30 11:06:31;;;;;;;9.88;6.10;;;;;;;33.86;65.80;99940.22;5115359;28;20111;-70
2023/08/30 11:09:19;;;;;;;15.15;6.20;;;;;;;34.28;63.89;99932.88;5115793;28;20023;-69
2023/08/30 11:12:06;;;;;;;7.40;6.05;;;;;;;34.39;63.51;99932.38;5116202;28;20027;-70
2023/08/30 11:14:52;;;;;;;8.18;6.22;;;;;;;34.55;61.85;99931.25;5114926;28;20065;-69
2023/08/30 11:17:39;;;;;;;12.52;6.07;;;;;;;34.33;64.55;99935.03;5114477;28;20471;-70
2023/08/30 11:20:25;;;;;;;15.45;6.75;;;;;;;34.87;63.08;99930.63;5115253;28;20039;-70
2023/08/30 11:23:11;;;;;;;9.73;6.03;;;;;;;34.36;64.34;99915.63;5114486;28;20050;-70
2023/08/30 11:25:57;;;;;;;13.35;6.28;;;;;;;34.82;60.61;99914.06;5115707;28;20031;-70
2023/08/30 11:28:45;;;;;;;11.38;6.10;;;;;;;34.97;57.59;99902.00;5114957;28;20437;-70
2023/08/30 11:31:31;;;;;;;7.22;5.60;;;;;;;34.96;56.42;99899.47;5100477;28;20037;-69
2023/08/30 11:34:20;;;;;;;12.40;6.22;;;;;;;35.33;54.01;99885.41;5114283;28;20122;-71
2023/08/30 11:37:07;;;;;;;27.60;8.05;;;;;;;35.30;56.13;99893.97;5115396;28;20114;-69
2023/08/30 11:39:55;;;;;;;9.20;6.00;;;;;;;35.39;53.83;99890.00;5099441;28;20049;-69
2023/08/30 11:42:42;;;;;;;7.50;6.38;;;;;;;35.42;53.72;99888.75;5115156;28;20103;-69
2023/08/30 11:45:32;;;;;;;8.65;5.82;;;;;;;35.76;52.79;99888.66;5113479;28;20429;-69
2023/08/30 11:48:17;;;;;;;9.07;6.03;;;;;;;35.49;53.71;99882.28;5114367;28;20042;-70
2023/08/30 11:51:03;;;;;;;8.50;6.25;;;;;;;35.19;54.26;99879.03;5113905;28;20027;-69
2023/08/30 11:53:49;;;;;;;10.32;6.00;;;;;;;34.94;54.24;99874.31;5114094;28;20020;-71
2023/08/30 11:56:36;;;;;;;9.50;6.68;;;;;;;35.56;53.10;99874.97;5114070;28;20023;-70
2023/08/30 11:59:22;;;;;;;10.05;6.43;;;;;;;35.34;53.25;99867.16;5099516;28;20035;-71
2023/08/30 12:02:08;;;;;;;11.95;6.25;;;;;;;35.60;52.13;99872.66;5114358;28;20073;-70
2023/08/30 12:04:54;;;;;;;10.95;6.35;;;;;;;35.51;53.30;99858.38;5113286;28;20086;-70
2023/08/30 12:07:40;;;;;;;8.13;6.20;;;;;;;35.49;52.71;99860.50;5114393;28;20031;-70
2023/08/30 12:10:28;;;;;;;9.50;6.15;;;;;;;35.68;52.67;99859.69;5114390;28;20415;-70
2023/08/30 12:13:32;;;;;;;10.40;6.38;;;;;;;35.59;52.99;99857.38;5114227;28;20028;-70
2023/08/30 12:16:18;;;;;;;8.10;6.18;;;;;;;35.63;53.21;99851.28;5100593;28;20072;-70
2023/08/30 12:19:10;;;;;;;10.88;6.88;;;;;;;35.54;53.73;99847.06;5114816;28;20035;-68
2023/08/30 12:22:05;;;;;;;15.27;7.30;;;;;;;35.55;52.61;99847.94;5113498;28;20024;-70
2023/08/30 12:24:51;;;;;;;11.40;6.53;;;;;;;35.73;52.44;99846.28;5113041;28;20031;-70
2023/08/30 12:27:39;;;;;;;12.32;6.53;;;;;;;35.72;52.20;99850.06;5098901;28;20111;-70
2023/08/30 12:30:25;;;;;;;7.57;6.07;;;;;;;36.00;50.78;99850.69;5114421;28;20023;-70
2023/08/30 12:33:10;;;;;;;9.68;6.63;;;;;;;35.06;52.77;99848.19;5115185;28;20058;-70
2023/08/30 12:35:56;;;;;;;10.65;6.03;;;;;;;35.71;52.96;99842.06;5114348;28;20024;-73
2023/08/30 12:38:42;;;;;;;9.00;6.10;;;;;;;35.67;52.68;99844.34;5114568;28;20437;-68
2023/08/30 12:41:28;;;;;;;9.55;6.75;;;;;;;35.49;51.62;99844.16;5115434;28;20053;-70
2023/08/30 12:44:13;;;;;;;10.55;6.18;;;;;;;35.61;52.37;99828.00;5114289;28;20048;-70
2023/08/30 12:46:59;;;;;;;10.43;6.72;;;;;;;35.35;52.71;99834.25;5112428;28;20023;-70
2023/08/30 12:49:45;;;;;;;8.70;6.25;;;;;;;35.84;51.05;99833.94;5113956;28;20352;-69
2023/08/30 12:52:31;;;;;;;10.68;6.55;;;;;;;35.73;51.63;99829.06;5113545;28;20425;-69
2023/08/30 12:55:19;;;;;;;7.38;5.90;;;;;;;35.98;49.50;99822.81;5114005;28;20019;-70
2023/08/30 12:58:04;;;;;;;8.43;6.85;;;;;;;35.66;49.75;99817.31;5112321;28;20039;-70
2023/08/30 13:00:50;;;;;;;11.82;6.63;;;;;;;35.46;49.68;99814.56;5112333;28;20036;-69
2023/08/30 13:03:36;;;;;;;10.82;6.53;;;;;;;35.29;50.70;99807.00;5113531;28;20052;-70
2023/08/30 13:06:21;;;;;;;10.88;6.00;;;;;;;35.24;51.00;99794.81;5113181;28;20024;-69
2023/08/30 13:09:07;;;;;;;10.95;6.53;;;;;;;35.52;51.42;99793.81;5098657;28;20368;-70
2023/08/30 13:11:53;;;;;;;7.72;6.15;;;;;;;35.67;50.85;99791.75;5098740;28;20020;-70
2023/08/30 13:14:38;;;;;;;10.65;6.35;;;;;;;35.42;50.22;99786.06;5113180;28;20024;-70
2023/08/30 13:17:24;;;;;;;10.00;6.55;;;;;;;35.41;52.01;99792.56;5099278;28;20492;-69
2023/08/30 13:20:10;;;;;;;16.38;7.07;;;;;;;35.27;52.23;99792.72;5113318;28;20036;-69
2023/08/30 13:22:56;;;;;;;9.43;6.38;;;;;;;35.71;49.18;99780.19;5113371;28;20429;-71
2023/08/30 13:25:42;;;;;;;8.82;6.38;;;;;;;35.29;49.81;99775.16;5113133;28;20030;-71
2023/08/30 13:28:28;;;;;;;13.88;6.55;;;;;;;35.43;49.55;99778.75;5098457;28;20023;-71
2023/08/30 13:31:14;;;;;;;11.20;6.47;;;;;;;35.58;49.80;99777.47;5098670;28;20028;-70
2023/08/30 13:34:00;;;;;;;9.48;6.43;;;;;;;35.80;47.71;99787.16;5112410;28;20024;-70